sensor_id;sensor_type;location;lat;lon;timestamp;P1;durP1;ratioP1;P2;durP2;ratioP2
18338;SDS011;9295;44.484;11.240;2024-01-15T00:02:08;88.93;;;48.73;;
18338;SDS011;9295;44.484;11.240;2024-01-15T00:04:37;93.53;;;50.00;;
18338;SDS011;9295;44.484;11.240;2024-01-15T00:07:06;94.90;;;49.53;;
18338;SDS011;9295;44.484;11.240;2024-01-15T00:09:35;96.30;;;50.10;;
18338;SDS011;9295;44.484;11.240;2024-01-15T00:12:04;88.87;;;50.70;;
18338;SDS011;9295;44.484;11.240;2024-01-15T00:14:33;94.87;;;51.30;;
18338;SDS011;9295;44.484;11.240;2024-01-15T00:17:02;96.03;;;49.80;;
18338;SDS011;9295;44.484;11.240;2024-01-15T00:19:32;96.43;;;49.97;;
18338;SDS011;9295;44.484;11.240;2024-01-15T00:22:01;88.33;;;48.80;;
18338;SDS011;9295;44.484;11.240;2024-01-15T00:24:29;96.53;;;48.13;;
18338;SDS011;9295;44.484;11.240;2024-01-15T00:26:58;97.43;;;51.37;;
18338;SDS011;9295;44.484;11.240;2024-01-15T00:29:26;94.23;;;50.10;;
18338;SDS011;9295;44.484;11.240;2024-01-15T00:31:55;95.00;;;48.50;;
18338;SDS011;9295;44.484;11.240;2024-01-15T00:34:24;91.03;;;46.33;;
18338;SDS011;9295;44.484;11.240;2024-01-15T00:36:54;92.37;;;48.47;;
18338;SDS011;9295;44.484;11.240;2024-01-15T00:39:22;101.70;;;48.57;;
18338;SDS011;9295;44.484;11.240;2024-01-15T00:41:51;99.17;;;48.93;;
18338;SDS011;9295;44.484;11.240;2024-01-15T00:44:19;115.63;;;48.00;;
18338;SDS011;9295;44.484;11.240;2024-01-15T00:46:48;112.20;;;51.70;;
18338;SDS011;9295;44.484;11.240;2024-01-15T00:49:16;109.77;;;50.33;;
18338;SDS011;9295;44.484;11.240;2024-01-15T00:51:45;102.90;;;50.57;;
18338;SDS011;9295;44.484;11.240;2024-01-15T00:54:15;112.80;;;52.43;;
18338;SDS011;9295;44.484;11.240;2024-01-15T00:56:44;106.60;;;48.97;;
18338;SDS011;9295;44.484;11.240;2024-01-15T00:59:12;105.80;;;50.40;;
18338;SDS011;9295;44.484;11.240;2024-01-15T01:01:42;110.13;;;50.63;;
18338;SDS011;9295;44.484;11.240;2024-01-15T01:04:12;119.27;;;51.17;;
18338;SDS011;9295;44.484;11.240;2024-01-15T01:06:41;106.97;;;51.70;;
18338;SDS011;9295;44.484;11.240;2024-01-15T01:09:10;105.40;;;51.80;;
18338;SDS011;9295;44.484;11.240;2024-01-15T01:11:40;104.40;;;52.23;;
18338;SDS011;9295;44.484;11.240;2024-01-15T01:14:08;103.27;;;51.67;;
18338;SDS011;9295;44.484;11.240;2024-01-15T01:16:37;103.87;;;51.43;;
18338;SDS011;9295;44.484;11.240;2024-01-15T01:19:06;103.20;;;52.37;;
18338;SDS011;9295;44.484;11.240;2024-01-15T01:21:35;106.27;;;51.83;;
18338;SDS011;9295;44.484;11.240;2024-01-15T01:24:04;94.17;;;48.80;;
18338;SDS011;9295;44.484;11.240;2024-01-15T01:26:32;99.47;;;50.80;;
18338;SDS011;9295;44.484;11.240;2024-01-15T01:29:02;95.73;;;47.87;;
18338;SDS011;9295;44.484;11.240;2024-01-15T01:31:31;100.23;;;49.63;;
18338;SDS011;9295;44.484;11.240;2024-01-15T01:33:59;96.53;;;47.87;;
18338;SDS011;9295;44.484;11.240;2024-01-15T01:36:28;85.70;;;47.87;;
18338;SDS011;9295;44.484;11.240;2024-01-15T01:38:59;93.10;;;47.10;;
18338;SDS011;9295;44.484;11.240;2024-01-15T01:41:27;88.67;;;50.37;;
18338;SDS011;9295;44.484;11.240;2024-01-15T01:43:55;101.93;;;50.80;;
18338;SDS011;9295;44.484;11.240;2024-01-15T01:46:26;94.53;;;50.03;;
18338;SDS011;9295;44.484;11.240;2024-01-15T01:48:55;93.87;;;51.37;;
18338;SDS011;9295;44.484;11.240;2024-01-15T01:51:28;89.13;;;48.87;;
18338;SDS011;9295;44.484;11.240;2024-01-15T01:53:57;101.37;;;51.87;;
18338;SDS011;9295;44.484;11.240;2024-01-15T01:56:25;98.40;;;50.40;;
18338;SDS011;9295;44.484;11.240;2024-01-15T01:58:54;92.10;;;49.07;;
18338;SDS011;9295;44.484;11.240;2024-01-15T02:01:23;101.43;;;52.13;;
18338;SDS011;9295;44.484;11.240;2024-01-15T02:03:53;99.50;;;50.23;;
18338;SDS011;9295;44.484;11.240;2024-01-15T02:06:23;93.43;;;49.17;;
18338;SDS011;9295;44.484;11.240;2024-01-15T02:08:51;95.37;;;50.53;;
18338;SDS011;9295;44.484;11.240;2024-01-15T02:11:21;102.60;;;49.47;;
18338;SDS011;9295;44.484;11.240;2024-01-15T02:13:49;84.60;;;49.00;;
18338;SDS011;9295;44.484;11.240;2024-01-15T02:16:18;87.07;;;47.53;;
18338;SDS011;9295;44.484;11.240;2024-01-15T02:18:46;89.23;;;47.20;;
18338;SDS011;9295;44.484;11.240;2024-01-15T02:21:16;84.03;;;45.70;;
18338;SDS011;9295;44.484;11.240;2024-01-15T02:23:46;86.70;;;47.17;;
18338;SDS011;9295;44.484;11.240;2024-01-15T02:26:15;84.13;;;46.57;;
18338;SDS011;9295;44.484;11.240;2024-01-15T02:28:43;76.57;;;45.60;;
18338;SDS011;9295;44.484;11.240;2024-01-15T02:31:12;79.63;;;44.87;;
18338;SDS011;9295;44.484;11.240;2024-01-15T02:33:41;74.77;;;42.60;;
18338;SDS011;9295;44.484;11.240;2024-01-15T02:36:10;75.03;;;44.00;;
18338;SDS011;9295;44.484;11.240;2024-01-15T02:38:39;71.53;;;42.93;;
18338;SDS011;9295;44.484;11.240;2024-01-15T02:41:11;84.43;;;43.50;;
18338;SDS011;9295;44.484;11.240;2024-01-15T02:43:40;75.17;;;43.20;;
18338;SDS011;9295;44.484;11.240;2024-01-15T02:46:09;83.37;;;45.80;;
18338;SDS011;9295;44.484;11.240;2024-01-15T02:48:38;92.20;;;46.90;;
18338;SDS011;9295;44.484;11.240;2024-01-15T02:51:06;66.17;;;39.07;;
18338;SDS011;9295;44.484;11.240;2024-01-15T02:53:35;74.33;;;41.33;;
18338;SDS011;9295;44.484;11.240;2024-01-15T02:56:04;77.23;;;41.37;;
18338;SDS011;9295;44.484;11.240;2024-01-15T02:58:35;67.20;;;38.43;;
18338;SDS011;9295;44.484;11.240;2024-01-15T03:01:04;74.50;;;42.43;;
18338;SDS011;9295;44.484;11.240;2024-01-15T03:03:32;61.03;;;37.03;;
18338;SDS011;9295;44.484;11.240;2024-01-15T03:06:01;69.53;;;39.90;;
18338;SDS011;9295;44.484;11.240;2024-01-15T03:08:30;70.60;;;38.90;;
18338;SDS011;9295;44.484;11.240;2024-01-15T03:10:59;70.90;;;40.10;;
18338;SDS011;9295;44.484;11.240;2024-01-15T03:13:27;70.43;;;40.50;;
18338;SDS011;9295;44.484;11.240;2024-01-15T03:15:57;78.93;;;42.80;;
18338;SDS011;9295;44.484;11.240;2024-01-15T03:18:26;65.40;;;38.90;;
18338;SDS011;9295;44.484;11.240;2024-01-15T03:20:54;71.57;;;40.80;;
18338;SDS011;9295;44.484;11.240;2024-01-15T03:23:23;71.77;;;40.33;;
18338;SDS011;9295;44.484;11.240;2024-01-15T03:25:51;71.80;;;41.57;;
18338;SDS011;9295;44.484;11.240;2024-01-15T03:28:20;71.03;;;41.30;;
18338;SDS011;9295;44.484;11.240;2024-01-15T03:30:48;69.90;;;41.70;;
18338;SDS011;9295;44.484;11.240;2024-01-15T03:33:19;71.67;;;41.20;;
18338;SDS011;9295;44.484;11.240;2024-01-15T03:35:48;69.87;;;38.47;;
18338;SDS011;9295;44.484;11.240;2024-01-15T03:38:16;67.90;;;37.57;;
18338;SDS011;9295;44.484;11.240;2024-01-15T03:40:45;71.33;;;38.87;;
18338;SDS011;9295;44.484;11.240;2024-01-15T03:43:14;65.47;;;39.30;;
18338;SDS011;9295;44.484;11.240;2024-01-15T03:45:42;74.70;;;44.97;;
18338;SDS011;9295;44.484;11.240;2024-01-15T03:48:11;73.23;;;42.90;;
18338;SDS011;9295;44.484;11.240;2024-01-15T03:50:41;71.10;;;42.50;;
18338;SDS011;9295;44.484;11.240;2024-01-15T03:53:09;70.30;;;41.83;;
18338;SDS011;9295;44.484;11.240;2024-01-15T03:55:38;75.57;;;42.80;;
18338;SDS011;9295;44.484;11.240;2024-01-15T03:58:06;69.00;;;41.20;;
18338;SDS011;9295;44.484;11.240;2024-01-15T04:00:35;68.97;;;41.97;;
18338;SDS011;9295;44.484;11.240;2024-01-15T04:03:04;71.93;;;41.40;;
18338;SDS011;9295;44.484;11.240;2024-01-15T04:05:32;75.00;;;40.10;;
18338;SDS011;9295;44.484;11.240;2024-01-15T04:08:03;78.33;;;41.80;;
18338;SDS011;9295;44.484;11.240;2024-01-15T04:10:31;70.57;;;41.27;;
18338;SDS011;9295;44.484;11.240;2024-01-15T04:13:00;65.87;;;40.20;;
18338;SDS011;9295;44.484;11.240;2024-01-15T04:15:30;73.00;;;41.03;;
18338;SDS011;9295;44.484;11.240;2024-01-15T04:17:58;64.30;;;39.00;;
18338;SDS011;9295;44.484;11.240;2024-01-15T04:20:27;66.80;;;38.63;;
18338;SDS011;9295;44.484;11.240;2024-01-15T04:22:56;67.67;;;40.10;;
18338;SDS011;9295;44.484;11.240;2024-01-15T04:25:26;73.70;;;42.90;;
18338;SDS011;9295;44.484;11.240;2024-01-15T04:27:54;78.70;;;42.40;;
18338;SDS011;9295;44.484;11.240;2024-01-15T04:30:23;78.00;;;45.60;;
18338;SDS011;9295;44.484;11.240;2024-01-15T04:32:52;78.50;;;44.77;;
18338;SDS011;9295;44.484;11.240;2024-01-15T04:35:20;74.43;;;43.30;;
18338;SDS011;9295;44.484;11.240;2024-01-15T04:37:49;77.00;;;43.80;;
18338;SDS011;9295;44.484;11.240;2024-01-15T04:40:17;71.20;;;42.47;;
18338;SDS011;9295;44.484;11.240;2024-01-15T04:42:47;77.80;;;43.70;;
18338;SDS011;9295;44.484;11.240;2024-01-15T04:45:16;71.93;;;41.33;;
18338;SDS011;9295;44.484;11.240;2024-01-15T04:47:45;72.07;;;42.13;;
18338;SDS011;9295;44.484;11.240;2024-01-15T04:50:14;66.40;;;38.90;;
18338;SDS011;9295;44.484;11.240;2024-01-15T04:52:42;71.27;;;41.63;;
18338;SDS011;9295;44.484;11.240;2024-01-15T04:55:11;73.83;;;41.73;;
18338;SDS011;9295;44.484;11.240;2024-01-15T04:57:39;68.63;;;41.77;;
18338;SDS011;9295;44.484;11.240;2024-01-15T05:00:10;69.17;;;41.00;;
18338;SDS011;9295;44.484;11.240;2024-01-15T05:02:40;67.47;;;42.53;;
18338;SDS011;9295;44.484;11.240;2024-01-15T05:05:09;73.10;;;40.97;;
18338;SDS011;9295;44.484;11.240;2024-01-15T05:07:38;62.30;;;38.00;;
18338;SDS011;9295;44.484;11.240;2024-01-15T05:10:06;72.53;;;40.37;;
18338;SDS011;9295;44.484;11.240;2024-01-15T05:12:35;72.73;;;41.93;;
18338;SDS011;9295;44.484;11.240;2024-01-15T05:15:04;70.07;;;41.50;;
18338;SDS011;9295;44.484;11.240;2024-01-15T05:17:34;81.70;;;44.47;;
18338;SDS011;9295;44.484;11.240;2024-01-15T05:20:03;79.77;;;45.37;;
18338;SDS011;9295;44.484;11.240;2024-01-15T05:22:33;80.47;;;46.87;;
18338;SDS011;9295;44.484;11.240;2024-01-15T05:25:01;77.40;;;43.50;;
18338;SDS011;9295;44.484;11.240;2024-01-15T05:27:30;77.23;;;44.73;;
18338;SDS011;9295;44.484;11.240;2024-01-15T05:29:59;89.13;;;47.10;;
18338;SDS011;9295;44.484;11.240;2024-01-15T05:32:28;82.27;;;45.40;;
18338;SDS011;9295;44.484;11.240;2024-01-15T05:34:58;80.97;;;44.73;;
18338;SDS011;9295;44.484;11.240;2024-01-15T05:37:26;84.03;;;47.57;;
18338;SDS011;9295;44.484;11.240;2024-01-15T05:39:55;77.23;;;45.30;;
18338;SDS011;9295;44.484;11.240;2024-01-15T05:42:23;78.93;;;43.70;;
18338;SDS011;9295;44.484;11.240;2024-01-15T05:44:53;80.17;;;45.90;;
18338;SDS011;9295;44.484;11.240;2024-01-15T05:47:21;84.47;;;46.43;;
18338;SDS011;9295;44.484;11.240;2024-01-15T05:49:50;79.97;;;45.53;;
18338;SDS011;9295;44.484;11.240;2024-01-15T05:52:20;82.60;;;45.20;;
18338;SDS011;9295;44.484;11.240;2024-01-15T05:54:49;76.90;;;46.77;;
18338;SDS011;9295;44.484;11.240;2024-01-15T05:57:18;91.97;;;47.97;;
18338;SDS011;9295;44.484;11.240;2024-01-15T05:59:47;83.23;;;46.40;;
18338;SDS011;9295;44.484;11.240;2024-01-15T06:02:15;89.83;;;49.30;;
18338;SDS011;9295;44.484;11.240;2024-01-15T06:04:44;79.83;;;46.30;;
18338;SDS011;9295;44.484;11.240;2024-01-15T06:07:12;86.63;;;47.93;;
18338;SDS011;9295;44.484;11.240;2024-01-15T06:09:42;83.37;;;45.33;;
18338;SDS011;9295;44.484;11.240;2024-01-15T06:12:11;79.10;;;44.40;;
18338;SDS011;9295;44.484;11.240;2024-01-15T06:14:40;77.80;;;43.80;;
18338;SDS011;9295;44.484;11.240;2024-01-15T06:17:09;79.53;;;44.40;;
18338;SDS011;9295;44.484;11.240;2024-01-15T06:19:37;81.83;;;45.90;;
18338;SDS011;9295;44.484;11.240;2024-01-15T06:22:06;83.50;;;45.83;;
18338;SDS011;9295;44.484;11.240;2024-01-15T06:24:35;76.83;;;43.87;;
18338;SDS011;9295;44.484;11.240;2024-01-15T06:27:05;69.63;;;39.77;;
18338;SDS011;9295;44.484;11.240;2024-01-15T06:29:36;78.13;;;41.90;;
18338;SDS011;9295;44.484;11.240;2024-01-15T06:32:06;73.03;;;42.80;;
18338;SDS011;9295;44.484;11.240;2024-01-15T06:34:34;67.47;;;38.30;;
18338;SDS011;9295;44.484;11.240;2024-01-15T06:37:03;68.03;;;37.57;;
18338;SDS011;9295;44.484;11.240;2024-01-15T06:39:32;65.97;;;37.90;;
18338;SDS011;9295;44.484;11.240;2024-01-15T06:42:00;62.17;;;37.87;;
18338;SDS011;9295;44.484;11.240;2024-01-15T06:44:30;65.20;;;36.27;;
18338;SDS011;9295;44.484;11.240;2024-01-15T06:47:00;64.40;;;37.00;;
18338;SDS011;9295;44.484;11.240;2024-01-15T06:49:35;68.60;;;39.73;;
18338;SDS011;9295;44.484;11.240;2024-01-15T06:52:04;66.50;;;40.27;;
18338;SDS011;9295;44.484;11.240;2024-01-15T06:54:33;74.50;;;44.70;;
18338;SDS011;9295;44.484;11.240;2024-01-15T06:57:03;76.80;;;43.13;;
18338;SDS011;9295;44.484;11.240;2024-01-15T06:59:38;70.00;;;39.77;;
18338;SDS011;9295;44.484;11.240;2024-01-15T07:02:07;67.10;;;40.43;;
18338;SDS011;9295;44.484;11.240;2024-01-15T07:04:37;71.83;;;38.97;;
18338;SDS011;9295;44.484;11.240;2024-01-15T07:07:09;65.07;;;38.97;;
18338;SDS011;9295;44.484;11.240;2024-01-15T07:09:38;66.10;;;39.10;;
18338;SDS011;9295;44.484;11.240;2024-01-15T07:12:09;66.20;;;39.33;;
18338;SDS011;9295;44.484;11.240;2024-01-15T07:14:40;73.87;;;42.43;;
18338;SDS011;9295;44.484;11.240;2024-01-15T07:17:08;74.90;;;40.47;;
18338;SDS011;9295;44.484;11.240;2024-01-15T07:19:37;65.37;;;38.80;;
18338;SDS011;9295;44.484;11.240;2024-01-15T07:22:06;59.03;;;35.77;;
18338;SDS011;9295;44.484;11.240;2024-01-15T07:24:35;56.00;;;32.40;;
18338;SDS011;9295;44.484;11.240;2024-01-15T07:27:04;54.50;;;31.03;;
18338;SDS011;9295;44.484;11.240;2024-01-15T07:29:32;49.60;;;30.50;;
18338;SDS011;9295;44.484;11.240;2024-01-15T07:32:05;62.30;;;35.60;;
18338;SDS011;9295;44.484;11.240;2024-01-15T07:34:35;59.50;;;36.00;;
18338;SDS011;9295;44.484;11.240;2024-01-15T07:37:05;66.53;;;34.50;;
18338;SDS011;9295;44.484;11.240;2024-01-15T07:39:34;66.83;;;37.83;;
18338;SDS011;9295;44.484;11.240;2024-01-15T07:42:03;64.53;;;37.30;;
18338;SDS011;9295;44.484;11.240;2024-01-15T07:44:32;62.20;;;37.80;;
18338;SDS011;9295;44.484;11.240;2024-01-15T07:47:00;65.73;;;36.37;;
18338;SDS011;9295;44.484;11.240;2024-01-15T07:49:31;72.10;;;36.87;;
18338;SDS011;9295;44.484;11.240;2024-01-15T07:52:01;61.33;;;36.83;;
18338;SDS011;9295;44.484;11.240;2024-01-15T07:54:32;64.70;;;35.17;;
18338;SDS011;9295;44.484;11.240;2024-01-15T07:57:01;61.73;;;36.10;;
18338;SDS011;9295;44.484;11.240;2024-01-15T07:59:30;50.23;;;31.03;;
18338;SDS011;9295;44.484;11.240;2024-01-15T08:01:59;53.37;;;31.23;;
18338;SDS011;9295;44.484;11.240;2024-01-15T08:04:28;57.43;;;33.53;;
18338;SDS011;9295;44.484;11.240;2024-01-15T08:06:58;56.43;;;35.13;;
18338;SDS011;9295;44.484;11.240;2024-01-15T08:09:26;58.63;;;37.00;;
18338;SDS011;9295;44.484;11.240;2024-01-15T08:11:56;62.60;;;38.20;;
18338;SDS011;9295;44.484;11.240;2024-01-15T08:14:25;64.90;;;36.33;;
18338;SDS011;9295;44.484;11.240;2024-01-15T08:16:54;61.70;;;36.37;;
18338;SDS011;9295;44.484;11.240;2024-01-15T08:19:23;61.60;;;37.27;;
18338;SDS011;9295;44.484;11.240;2024-01-15T08:21:52;64.13;;;40.00;;
18338;SDS011;9295;44.484;11.240;2024-01-15T08:24:22;70.67;;;39.33;;
18338;SDS011;9295;44.484;11.240;2024-01-15T08:26:51;60.33;;;38.00;;
18338;SDS011;9295;44.484;11.240;2024-01-15T08:29:19;68.17;;;40.77;;
18338;SDS011;9295;44.484;11.240;2024-01-15T08:31:48;70.00;;;39.20;;
18338;SDS011;9295;44.484;11.240;2024-01-15T08:34:17;63.60;;;38.10;;
18338;SDS011;9295;44.484;11.240;2024-01-15T08:36:46;60.87;;;38.43;;
18338;SDS011;9295;44.484;11.240;2024-01-15T08:39:14;61.70;;;38.97;;
18338;SDS011;9295;44.484;11.240;2024-01-15T08:41:46;63.57;;;39.27;;
18338;SDS011;9295;44.484;11.240;2024-01-15T08:44:14;64.97;;;37.20;;
18338;SDS011;9295;44.484;11.240;2024-01-15T08:46:43;62.30;;;37.50;;
18338;SDS011;9295;44.484;11.240;2024-01-15T08:49:11;59.70;;;37.63;;
18338;SDS011;9295;44.484;11.240;2024-01-15T08:51:40;64.70;;;37.53;;
18338;SDS011;9295;44.484;11.240;2024-01-15T08:54:08;60.77;;;37.03;;
18338;SDS011;9295;44.484;11.240;2024-01-15T08:56:37;55.87;;;37.10;;
18338;SDS011;9295;44.484;11.240;2024-01-15T08:59:08;59.43;;;37.27;;
18338;SDS011;9295;44.484;11.240;2024-01-15T09:01:55;59.73;;;38.30;;
18338;SDS011;9295;44.484;11.240;2024-01-15T09:04:24;65.47;;;36.97;;
18338;SDS011;9295;44.484;11.240;2024-01-15T09:06:53;59.13;;;37.13;;
18338;SDS011;9295;44.484;11.240;2024-01-15T09:09:21;57.80;;;36.20;;
18338;SDS011;9295;44.484;11.240;2024-01-15T09:11:50;57.90;;;36.00;;
18338;SDS011;9295;44.484;11.240;2024-01-15T09:14:20;60.23;;;37.40;;
18338;SDS011;9295;44.484;11.240;2024-01-15T09:17:03;57.40;;;35.83;;
18338;SDS011;9295;44.484;11.240;2024-01-15T09:19:32;61.50;;;39.20;;
18338;SDS011;9295;44.484;11.240;2024-01-15T09:22:00;61.20;;;38.17;;
18338;SDS011;9295;44.484;11.240;2024-01-15T09:24:29;69.97;;;40.30;;
18338;SDS011;9295;44.484;11.240;2024-01-15T09:26:58;68.67;;;42.23;;
18338;SDS011;9295;44.484;11.240;2024-01-15T09:29:27;81.00;;;45.00;;
18338;SDS011;9295;44.484;11.240;2024-01-15T09:31:56;76.23;;;46.80;;
18338;SDS011;9295;44.484;11.240;2024-01-15T09:34:25;67.33;;;42.40;;
18338;SDS011;9295;44.484;11.240;2024-01-15T09:36:54;75.40;;;48.17;;
18338;SDS011;9295;44.484;11.240;2024-01-15T09:39:22;69.63;;;44.10;;
18338;SDS011;9295;44.484;11.240;2024-01-15T09:41:52;67.83;;;41.03;;
18338;SDS011;9295;44.484;11.240;2024-01-15T09:44:21;74.90;;;43.60;;
18338;SDS011;9295;44.484;11.240;2024-01-15T09:46:52;69.73;;;42.70;;
18338;SDS011;9295;44.484;11.240;2024-01-15T09:49:21;70.23;;;45.80;;
18338;SDS011;9295;44.484;11.240;2024-01-15T09:51:50;73.63;;;44.17;;
18338;SDS011;9295;44.484;11.240;2024-01-15T09:54:31;76.17;;;42.27;;
18338;SDS011;9295;44.484;11.240;2024-01-15T09:57:01;65.53;;;41.17;;
18338;SDS011;9295;44.484;11.240;2024-01-15T09:59:31;69.87;;;43.90;;
18338;SDS011;9295;44.484;11.240;2024-01-15T10:02:01;77.20;;;44.20;;
18338;SDS011;9295;44.484;11.240;2024-01-15T10:04:30;68.50;;;42.63;;
18338;SDS011;9295;44.484;11.240;2024-01-15T10:06:59;77.70;;;45.73;;
18338;SDS011;9295;44.484;11.240;2024-01-15T10:09:29;78.67;;;46.50;;
18338;SDS011;9295;44.484;11.240;2024-01-15T10:11:58;85.87;;;48.23;;
18338;SDS011;9295;44.484;11.240;2024-01-15T10:14:26;75.00;;;45.87;;
18338;SDS011;9295;44.484;11.240;2024-01-15T10:16:55;72.27;;;44.70;;
18338;SDS011;9295;44.484;11.240;2024-01-15T10:19:25;81.40;;;46.30;;
18338;SDS011;9295;44.484;11.240;2024-01-15T10:21:54;79.67;;;48.20;;
18338;SDS011;9295;44.484;11.240;2024-01-15T10:24:23;81.83;;;47.27;;
18338;SDS011;9295;44.484;11.240;2024-01-15T10:26:52;80.80;;;46.87;;
18338;SDS011;9295;44.484;11.240;2024-01-15T10:29:33;76.47;;;46.47;;
18338;SDS011;9295;44.484;11.240;2024-01-15T10:32:02;82.30;;;46.03;;
18338;SDS011;9295;44.484;11.240;2024-01-15T10:34:32;78.47;;;46.97;;
18338;SDS011;9295;44.484;11.240;2024-01-15T10:37:01;71.53;;;46.20;;
18338;SDS011;9295;44.484;11.240;2024-01-15T10:39:30;76.00;;;44.50;;
18338;SDS011;9295;44.484;11.240;2024-01-15T10:41:58;69.30;;;44.27;;
18338;SDS011;9295;44.484;11.240;2024-01-15T10:44:27;78.27;;;48.07;;
18338;SDS011;9295;44.484;11.240;2024-01-15T10:46:55;76.30;;;47.30;;
18338;SDS011;9295;44.484;11.240;2024-01-15T10:49:25;82.37;;;49.20;;
18338;SDS011;9295;44.484;11.240;2024-01-15T10:52:00;79.00;;;48.90;;
18338;SDS011;9295;44.484;11.240;2024-01-15T10:54:30;89.10;;;51.80;;
18338;SDS011;9295;44.484;11.240;2024-01-15T10:57:00;88.33;;;52.67;;
18338;SDS011;9295;44.484;11.240;2024-01-15T10:59:29;85.17;;;51.20;;
18338;SDS011;9295;44.484;11.240;2024-01-15T11:01:58;99.17;;;55.57;;
18338;SDS011;9295;44.484;11.240;2024-01-15T11:04:27;95.77;;;59.37;;
18338;SDS011;9295;44.484;11.240;2024-01-15T11:07:01;83.87;;;51.03;;
18338;SDS011;9295;44.484;11.240;2024-01-15T11:09:30;92.03;;;52.90;;
18338;SDS011;9295;44.484;11.240;2024-01-15T11:12:06;80.63;;;49.53;;
18338;SDS011;9295;44.484;11.240;2024-01-15T11:14:40;89.57;;;50.77;;
18338;SDS011;9295;44.484;11.240;2024-01-15T11:17:10;79.57;;;48.90;;
18338;SDS011;9295;44.484;11.240;2024-01-15T11:19:42;84.13;;;47.87;;
18338;SDS011;9295;44.484;11.240;2024-01-15T11:25:14;70.47;;;42.67;;
18338;SDS011;9295;44.484;11.240;2024-01-15T11:27:43;78.33;;;45.10;;
18338;SDS011;9295;44.484;11.240;2024-01-15T11:30:14;81.60;;;47.57;;
18338;SDS011;9295;44.484;11.240;2024-01-15T11:32:43;76.00;;;45.50;;
18338;SDS011;9295;44.484;11.240;2024-01-15T11:35:13;73.57;;;46.80;;
18338;SDS011;9295;44.484;11.240;2024-01-15T11:37:58;73.80;;;45.10;;
18338;SDS011;9295;44.484;11.240;2024-01-15T11:40:39;68.13;;;42.97;;
18338;SDS011;9295;44.484;11.240;2024-01-15T11:43:09;76.50;;;44.90;;
18338;SDS011;9295;44.484;11.240;2024-01-15T11:45:40;70.70;;;42.43;;
18338;SDS011;9295;44.484;11.240;2024-01-15T11:48:10;71.43;;;42.37;;
18338;SDS011;9295;44.484;11.240;2024-01-15T11:50:40;73.37;;;43.87;;
18338;SDS011;9295;44.484;11.240;2024-01-15T11:56:06;69.83;;;41.77;;
18338;SDS011;9295;44.484;11.240;2024-01-15T11:58:40;69.70;;;41.40;;
18338;SDS011;9295;44.484;11.240;2024-01-15T12:01:10;65.60;;;38.93;;
18338;SDS011;9295;44.484;11.240;2024-01-15T12:03:39;65.40;;;40.57;;
18338;SDS011;9295;44.484;11.240;2024-01-15T12:06:08;58.93;;;38.37;;
18338;SDS011;9295;44.484;11.240;2024-01-15T12:08:38;63.90;;;38.57;;
18338;SDS011;9295;44.484;11.240;2024-01-15T12:11:10;58.80;;;38.20;;
18338;SDS011;9295;44.484;11.240;2024-01-15T12:13:41;68.80;;;39.23;;
18338;SDS011;9295;44.484;11.240;2024-01-15T12:16:10;68.80;;;40.33;;
18338;SDS011;9295;44.484;11.240;2024-01-15T12:18:39;65.40;;;39.23;;
18338;SDS011;9295;44.484;11.240;2024-01-15T12:21:09;64.97;;;38.57;;
18338;SDS011;9295;44.484;11.240;2024-01-15T12:23:38;59.90;;;36.50;;
18338;SDS011;9295;44.484;11.240;2024-01-15T12:26:09;56.50;;;36.57;;
18338;SDS011;9295;44.484;11.240;2024-01-15T12:28:38;69.83;;;36.30;;
18338;SDS011;9295;44.484;11.240;2024-01-15T12:31:07;56.17;;;35.97;;
18338;SDS011;9295;44.484;11.240;2024-01-15T12:33:35;56.30;;;34.17;;
18338;SDS011;9295;44.484;11.240;2024-01-15T12:36:04;59.03;;;37.93;;
18338;SDS011;9295;44.484;11.240;2024-01-15T12:38:33;57.13;;;34.97;;
18338;SDS011;9295;44.484;11.240;2024-01-15T12:41:02;58.10;;;34.67;;
18338;SDS011;9295;44.484;11.240;2024-01-15T12:43:32;55.97;;;35.00;;
18338;SDS011;9295;44.484;11.240;2024-01-15T12:46:00;62.00;;;36.77;;
18338;SDS011;9295;44.484;11.240;2024-01-15T12:48:28;55.10;;;35.30;;
18338;SDS011;9295;44.484;11.240;2024-01-15T12:50:57;55.50;;;35.00;;
18338;SDS011;9295;44.484;11.240;2024-01-15T12:53:28;58.30;;;36.40;;
18338;SDS011;9295;44.484;11.240;2024-01-15T12:55:56;61.53;;;36.90;;
18338;SDS011;9295;44.484;11.240;2024-01-15T12:58:25;57.70;;;35.47;;
18338;SDS011;9295;44.484;11.240;2024-01-15T13:00:55;60.70;;;35.77;;
18338;SDS011;9295;44.484;11.240;2024-01-15T13:03:24;58.53;;;35.83;;
18338;SDS011;9295;44.484;11.240;2024-01-15T13:05:52;58.20;;;36.63;;
18338;SDS011;9295;44.484;11.240;2024-01-15T13:08:21;59.10;;;36.60;;
18338;SDS011;9295;44.484;11.240;2024-01-15T13:10:51;63.80;;;39.30;;
18338;SDS011;9295;44.484;11.240;2024-01-15T13:13:23;58.10;;;35.70;;
18338;SDS011;9295;44.484;11.240;2024-01-15T13:15:52;59.50;;;36.70;;
18338;SDS011;9295;44.484;11.240;2024-01-15T13:18:22;63.97;;;38.20;;
18338;SDS011;9295;44.484;11.240;2024-01-15T13:20:51;58.53;;;35.83;;
18338;SDS011;9295;44.484;11.240;2024-01-15T13:23:20;60.77;;;37.33;;
18338;SDS011;9295;44.484;11.240;2024-01-15T13:25:49;62.87;;;37.70;;
18338;SDS011;9295;44.484;11.240;2024-01-15T13:28:17;60.30;;;36.80;;
18338;SDS011;9295;44.484;11.240;2024-01-15T13:30:49;57.97;;;34.90;;
18338;SDS011;9295;44.484;11.240;2024-01-15T13:33:18;61.03;;;37.80;;
18338;SDS011;9295;44.484;11.240;2024-01-15T13:35:48;57.93;;;37.60;;
18338;SDS011;9295;44.484;11.240;2024-01-15T13:38:16;59.87;;;36.70;;
18338;SDS011;9295;44.484;11.240;2024-01-15T13:40:45;60.20;;;35.77;;
18338;SDS011;9295;44.484;11.240;2024-01-15T13:43:14;61.63;;;35.73;;
18338;SDS011;9295;44.484;11.240;2024-01-15T13:45:43;66.53;;;36.73;;
18338;SDS011;9295;44.484;11.240;2024-01-15T13:48:13;61.57;;;38.37;;
18338;SDS011;9295;44.484;11.240;2024-01-15T13:50:41;59.83;;;38.67;;
18338;SDS011;9295;44.484;11.240;2024-01-15T13:53:11;59.87;;;35.73;;
18338;SDS011;9295;44.484;11.240;2024-01-15T13:55:40;57.77;;;36.00;;
18338;SDS011;9295;44.484;11.240;2024-01-15T13:58:10;64.03;;;37.67;;
18338;SDS011;9295;44.484;11.240;2024-01-15T14:00:39;65.70;;;40.03;;
18338;SDS011;9295;44.484;11.240;2024-01-15T14:03:08;66.63;;;40.30;;
18338;SDS011;9295;44.484;11.240;2024-01-15T14:05:38;69.97;;;39.30;;
18338;SDS011;9295;44.484;11.240;2024-01-15T14:08:07;70.90;;;41.47;;
18338;SDS011;9295;44.484;11.240;2024-01-15T14:10:37;63.07;;;38.70;;
18338;SDS011;9295;44.484;11.240;2024-01-15T14:13:07;61.50;;;40.10;;
18338;SDS011;9295;44.484;11.240;2024-01-15T14:15:37;63.13;;;39.63;;
18338;SDS011;9295;44.484;11.240;2024-01-15T14:18:06;63.70;;;39.30;;
18338;SDS011;9295;44.484;11.240;2024-01-15T14:20:35;68.77;;;41.60;;
18338;SDS011;9295;44.484;11.240;2024-01-15T14:23:04;76.13;;;40.73;;
18338;SDS011;9295;44.484;11.240;2024-01-15T14:25:33;69.67;;;41.17;;
18338;SDS011;9295;44.484;11.240;2024-01-15T14:28:03;63.00;;;38.23;;
18338;SDS011;9295;44.484;11.240;2024-01-15T14:30:33;68.50;;;38.50;;
18338;SDS011;9295;44.484;11.240;2024-01-15T14:33:02;67.63;;;40.00;;
18338;SDS011;9295;44.484;11.240;2024-01-15T14:35:30;63.70;;;39.07;;
18338;SDS011;9295;44.484;11.240;2024-01-15T14:37:59;75.00;;;39.97;;
18338;SDS011;9295;44.484;11.240;2024-01-15T14:40:28;64.57;;;38.93;;